createdAt,value
2018-09-15T00:00:13.514Z,1008.97
2018-09-15T00:01:13.510Z,1008.97
2018-09-15T00:02:13.511Z,1009.03
2018-09-15T00:03:13.517Z,1008.99
2018-09-15T00:04:13.523Z,1008.98
2018-09-15T00:05:13.538Z,1009.03
2018-09-15T00:06:13.522Z,1009.03
2018-09-15T00:07:13.520Z,1009.05
2018-09-15T00:08:13.524Z,1009.08
2018-09-15T00:09:13.523Z,1009.08
2018-09-15T00:10:13.540Z,1009.14
2018-09-15T00:11:13.541Z,1009.16
2018-09-15T00:12:13.536Z,1009.19
2018-09-15T00:13:13.549Z,1009.18
2018-09-15T00:14:13.535Z,1009.24
2018-09-15T00:15:13.537Z,1009.21
2018-09-15T00:16:13.538Z,1009.23
2018-09-15T00:17:13.538Z,1009.23
2018-09-15T00:18:13.554Z,1009.24
2018-09-15T00:19:13.548Z,1009.23
2018-09-15T00:20:13.543Z,1009.21
2018-09-15T00:21:13.548Z,1009.26
2018-09-15T00:22:13.562Z,1009.25
2018-09-15T00:23:13.569Z,1009.28
2018-09-15T00:24:13.557Z,1009.27
2018-09-15T00:25:13.554Z,1009.29
2018-09-15T00:26:13.568Z,1009.30
2018-09-15T00:27:13.566Z,1009.27
2018-09-15T00:28:13.556Z,1009.32
2018-09-15T00:29:13.561Z,1009.26
2018-09-15T00:30:13.565Z,1009.32
2018-09-15T00:31:13.566Z,1009.32
2018-09-15T00:32:13.563Z,1009.35
2018-09-15T00:33:13.568Z,1009.35
2018-09-15T00:34:13.567Z,1009.31
2018-09-15T00:35:13.570Z,1009.29
2018-09-15T00:36:13.575Z,1009.23
2018-09-15T00:37:13.580Z,1009.29
2018-09-15T00:38:13.581Z,1009.24
2018-09-15T00:39:13.579Z,1009.24
2018-09-15T00:40:13.581Z,1009.27
2018-09-15T00:41:13.584Z,1009.28
2018-09-15T00:42:13.580Z,1009.27
2018-09-15T00:43:13.596Z,1009.31
2018-09-15T00:44:13.595Z,1009.28
2018-09-15T00:45:13.585Z,1009.35
2018-09-15T00:46:13.600Z,1009.32
2018-09-15T00:47:13.595Z,1009.32
2018-09-15T00:48:13.598Z,1009.35
2018-09-15T00:49:13.603Z,1009.37
2018-09-15T00:50:13.598Z,1009.39
2018-09-15T00:51:13.595Z,1009.40
2018-09-15T00:52:13.595Z,1009.41
2018-09-15T00:53:13.601Z,1009.36
2018-09-15T00:54:13.607Z,1009.39
2018-09-15T00:55:13.606Z,1009.35
2018-09-15T00:56:13.609Z,1009.35
2018-09-15T00:57:13.613Z,1009.34
2018-09-15T00:58:13.614Z,1009.33
2018-09-15T00:59:13.615Z,1009.35
2018-09-15T01:00:13.613Z,1009.32
2018-09-15T01:01:13.619Z,1009.32
2018-09-15T01:02:13.621Z,1009.31
2018-09-15T01:03:13.649Z,1009.32
2018-09-15T01:04:13.625Z,1009.31
2018-09-15T01:05:13.640Z,1009.32
2018-09-15T01:06:13.634Z,1009.30
2018-09-15T01:07:13.635Z,1009.33
2018-09-15T01:08:13.628Z,1009.32
2018-09-15T01:09:13.639Z,1009.30
2018-09-15T01:10:13.638Z,1009.30
2018-09-15T01:11:13.631Z,1009.31
2018-09-15T01:12:13.637Z,1009.35
2018-09-15T01:13:13.658Z,1009.35
2018-09-15T01:14:13.718Z,1009.38
2018-09-15T01:15:13.668Z,1009.41
2018-09-15T01:16:13.655Z,1009.41
2018-09-15T01:17:13.648Z,1009.43
2018-09-15T01:18:13.654Z,1009.41
2018-09-15T01:19:13.650Z,1009.43
2018-09-15T01:20:13.654Z,1009.43
2018-09-15T01:21:13.645Z,1009.45
2018-09-15T01:22:13.675Z,1009.50
2018-09-15T01:23:13.665Z,1009.49
2018-09-15T01:24:13.680Z,1009.52
2018-09-15T01:25:13.655Z,1009.52
2018-09-15T01:26:13.662Z,1009.53
2018-09-15T01:27:13.666Z,1009.50
2018-09-15T01:28:13.671Z,1009.52
2018-09-15T01:29:13.668Z,1009.53
2018-09-15T01:30:13.668Z,1009.49
2018-09-15T01:31:13.668Z,1009.53
2018-09-15T01:32:13.674Z,1009.52
2018-09-15T01:33:13.709Z,1009.53
2018-09-15T01:34:13.671Z,1009.52
2018-09-15T01:35:13.680Z,1009.48
2018-09-15T01:36:13.682Z,1009.51
2018-09-15T01:37:13.675Z,1009.49
2018-09-15T01:38:13.672Z,1009.52
2018-09-15T01:39:13.681Z,1009.53
2018-09-15T01:40:13.682Z,1009.51
2018-09-15T01:41:13.683Z,1009.51
2018-09-15T01:42:13.685Z,1009.53
2018-09-15T01:43:13.690Z,1009.56
2018-09-15T01:44:13.686Z,1009.60
2018-09-15T01:45:13.687Z,1009.56
2018-09-15T01:46:13.693Z,1009.58
2018-09-15T01:47:13.691Z,1009.61
2018-09-15T01:48:13.710Z,1009.58
2018-09-15T01:49:13.699Z,1009.56
2018-09-15T01:50:13.700Z,1009.56
2018-09-15T01:51:13.704Z,1009.55
2018-09-15T01:52:13.706Z,1009.60
2018-09-15T01:53:13.712Z,1009.59
2018-09-15T01:54:13.706Z,1009.57
2018-09-15T01:55:13.709Z,1009.58
2018-09-15T01:56:13.709Z,1009.61
2018-09-15T01:57:13.736Z,1009.59
2018-09-15T01:58:13.716Z,1009.58
2018-09-15T01:59:13.716Z,1009.59
2018-09-15T02:00:13.710Z,1009.57
2018-09-15T02:01:13.728Z,1009.60
2018-09-15T02:02:13.727Z,1009.54
2018-09-15T02:03:13.721Z,1009.59
2018-09-15T02:04:13.730Z,1009.53
2018-09-15T02:05:13.731Z,1009.57
2018-09-15T02:06:13.724Z,1009.55
2018-09-15T02:07:13.738Z,1009.57
2018-09-15T02:08:13.736Z,1009.55
2018-09-15T02:09:13.750Z,1009.56
2018-09-15T02:10:13.730Z,1009.58
2018-09-15T02:11:13.761Z,1009.57
2018-09-15T02:12:13.739Z,1009.53
2018-09-15T02:13:13.731Z,1009.55
2018-09-15T02:14:13.745Z,1009.56
2018-09-15T02:15:13.741Z,1009.51
2018-09-15T02:16:22.374Z,1009.53
2018-09-15T02:18:07.173Z,1009.48
2018-09-15T02:19:07.144Z,1009.50
2018-09-15T02:20:07.142Z,1009.52
2018-09-15T02:21:07.138Z,1009.50
2018-09-15T02:22:07.144Z,1009.53
2018-09-15T02:23:07.211Z,1009.56
2018-09-15T02:24:07.145Z,1009.58
2018-09-15T02:25:07.151Z,1009.66
2018-09-15T02:26:07.151Z,1009.62
2018-09-15T02:27:07.156Z,1009.68
2018-09-15T02:28:07.153Z,1009.67
2018-09-15T02:29:07.379Z,1009.72
2018-09-15T02:30:07.150Z,1009.72
2018-09-15T02:31:07.152Z,1009.66
2018-09-15T02:32:07.158Z,1009.72
2018-09-15T02:33:07.160Z,1009.73
2018-09-15T02:34:07.155Z,1009.73
2018-09-15T02:35:07.159Z,1009.74
2018-09-15T02:36:07.160Z,1009.73
2018-09-15T02:37:07.163Z,1009.72
2018-09-15T02:38:07.165Z,1009.76
2018-09-15T02:39:07.163Z,1009.79
2018-09-15T02:40:07.167Z,1009.77
2018-09-15T02:41:07.168Z,1009.78
2018-09-15T02:42:07.169Z,1009.79
2018-09-15T02:43:07.170Z,1009.82
2018-09-15T02:44:07.172Z,1009.79
2018-09-15T02:45:07.172Z,1009.79
2018-09-15T02:46:07.171Z,1009.78
2018-09-15T02:47:07.177Z,1009.79
2018-09-15T02:48:07.172Z,1009.79
2018-09-15T02:49:07.173Z,1009.83
2018-09-15T02:50:07.184Z,1009.83
2018-09-15T02:51:07.193Z,1009.84
2018-09-15T02:52:07.226Z,1009.83
2018-09-15T02:53:07.192Z,1009.86
2018-09-15T02:54:07.216Z,1009.90
2018-09-15T02:55:07.187Z,1009.93
2018-09-15T03:14:30.074Z,1009.97
2018-09-15T03:15:30.055Z,1009.95
2018-09-15T03:16:30.046Z,1009.98
2018-09-15T03:17:30.038Z,1010.01
2018-09-15T03:18:30.037Z,1009.97
2018-09-15T03:19:30.050Z,1010.00
2018-09-15T03:20:30.045Z,1009.98
2018-09-15T03:21:30.034Z,1010.00
2018-09-15T03:22:30.038Z,1010.02
2018-09-15T03:23:30.027Z,1009.98
2018-09-15T03:24:30.025Z,1009.95
2018-09-15T03:25:30.025Z,1009.97
2018-09-15T03:26:30.032Z,1010.03
2018-09-15T03:27:30.026Z,1010.00
2018-09-15T03:28:30.025Z,1010.01
2018-09-15T03:29:30.032Z,1010.05
2018-09-15T03:30:30.027Z,1010.03
2018-09-15T03:31:30.027Z,1010.02
2018-09-15T03:32:30.027Z,1010.03
2018-09-15T03:33:30.022Z,1010.01
2018-09-15T03:34:30.027Z,1010.06
2018-09-15T03:35:30.022Z,1010.05
2018-09-15T03:36:30.020Z,1010.04
2018-09-15T03:37:30.032Z,1010.05
2018-09-15T03:38:30.031Z,1010.06
2018-09-15T03:39:30.028Z,1010.06
2018-09-15T03:40:30.075Z,1010.06
2018-09-15T03:41:30.075Z,1010.11
2018-09-15T03:42:30.030Z,1010.11
2018-09-15T03:43:30.029Z,1010.09
2018-09-15T03:44:30.029Z,1010.10
2018-09-15T03:45:30.027Z,1010.11
2018-09-15T03:46:30.027Z,1010.15
2018-09-15T03:47:30.026Z,1010.17
2018-09-15T03:48:30.029Z,1010.19
2018-09-15T03:49:30.028Z,1010.19
2018-09-15T03:50:30.031Z,1010.21
2018-09-15T03:51:30.034Z,1010.16
2018-09-15T03:52:30.039Z,1010.20
2018-09-15T03:53:30.029Z,1010.21
2018-09-15T03:54:30.047Z,1010.21
2018-09-15T03:55:30.057Z,1010.20
2018-09-15T03:56:30.068Z,1010.19
2018-09-15T03:57:30.028Z,1010.18
2018-09-15T03:58:30.034Z,1010.16
2018-09-15T03:59:30.088Z,1010.20
2018-09-15T04:00:30.037Z,1010.18
2018-09-15T04:01:30.048Z,1010.16
2018-09-15T04:02:30.033Z,1010.17
2018-09-15T04:03:30.059Z,1010.18
2018-09-15T04:04:30.091Z,1010.22
2018-09-15T04:05:30.048Z,1010.21
2018-09-15T04:06:30.047Z,1010.22
2018-09-15T04:07:30.039Z,1010.26
2018-09-15T04:08:30.035Z,1010.29
2018-09-15T04:09:30.045Z,1010.28
2018-09-15T04:10:30.052Z,1010.30
2018-09-15T04:11:30.035Z,1010.30
2018-09-15T04:12:30.040Z,1010.30
2018-09-15T04:13:30.035Z,1010.31
2018-09-15T04:14:30.045Z,1010.26
2018-09-15T04:15:38.680Z,1010.31
2018-09-15T04:17:33.514Z,1010.32
2018-09-15T04:18:24.429Z,1010.34
2018-09-15T04:19:24.430Z,1010.36
2018-09-15T04:20:24.415Z,1010.41
2018-09-15T04:21:24.421Z,1010.39
2018-09-15T04:22:24.423Z,1010.42
2018-09-15T04:23:24.430Z,1010.38
2018-09-15T04:24:24.434Z,1010.41
2018-09-15T04:25:24.436Z,1010.43
2018-09-15T04:26:24.419Z,1010.44
2018-09-15T04:27:24.420Z,1010.45
2018-09-15T04:28:24.472Z,1010.45
2018-09-15T04:29:24.423Z,1010.46
2018-09-15T04:30:24.421Z,1010.47
2018-09-15T04:31:24.429Z,1010.50
2018-09-15T04:32:24.431Z,1010.47
2018-09-15T04:33:24.428Z,1010.49
2018-09-15T04:34:24.422Z,1010.51
2018-09-15T04:35:24.464Z,1010.55
2018-09-15T04:36:24.450Z,1010.55
2018-09-15T04:37:24.448Z,1010.56
2018-09-15T04:38:24.447Z,1010.61
2018-09-15T04:39:24.442Z,1010.60
2018-09-15T04:40:24.423Z,1010.66
2018-09-15T04:41:24.420Z,1010.66
2018-09-15T04:42:24.435Z,1010.66
2018-09-15T04:43:24.450Z,1010.68
2018-09-15T04:44:24.445Z,1010.71
2018-09-15T04:45:24.419Z,1010.71
2018-09-15T04:46:24.447Z,1010.72
2018-09-15T04:47:24.426Z,1010.76
2018-09-15T04:48:24.448Z,1010.77
2018-09-15T04:49:24.437Z,1010.78
2018-09-15T04:50:24.455Z,1010.76
2018-09-15T04:51:24.451Z,1010.79
2018-09-15T04:52:24.427Z,1010.80
2018-09-15T04:53:24.424Z,1010.81
2018-09-15T04:54:24.423Z,1010.82
2018-09-15T04:55:24.431Z,1010.83
2018-09-15T04:56:24.446Z,1010.81
2018-09-15T04:57:24.429Z,1010.86
2018-09-15T04:58:24.437Z,1010.83
2018-09-15T04:59:24.491Z,1010.87
2018-09-15T05:00:24.456Z,1010.86
2018-09-15T05:01:24.425Z,1010.88
2018-09-15T05:02:24.444Z,1010.87
2018-09-15T05:03:24.430Z,1010.85
2018-09-15T05:04:24.453Z,1010.87
2018-09-15T05:05:24.444Z,1010.88
2018-09-15T05:06:24.467Z,1010.93
2018-09-15T05:07:24.445Z,1010.90
2018-09-15T05:08:24.436Z,1010.89
2018-09-15T05:09:24.430Z,1010.89
2018-09-15T05:10:24.438Z,1010.88
2018-09-15T05:11:24.430Z,1010.91
2018-09-15T05:12:24.500Z,1010.89
2018-09-15T05:13:24.458Z,1010.89
2018-09-15T05:14:24.430Z,1010.87
2018-09-15T05:15:24.431Z,1010.87
2018-09-15T05:16:24.433Z,1010.90
2018-09-15T05:17:24.423Z,1010.87
2018-09-15T05:19:54.534Z,1010.89
2018-09-15T05:20:45.449Z,1010.91
2018-09-15T05:21:45.446Z,1010.93
2018-09-15T05:22:45.451Z,1010.93
2018-09-15T05:23:54.117Z,1010.95
2018-09-15T05:25:47.920Z,1010.91
2018-09-15T05:26:38.845Z,1010.95
2018-09-15T05:29:08.952Z,1010.99
2018-09-15T05:30:08.495Z,1010.98
2018-09-15T05:31:53.340Z,1010.99
2018-09-15T05:33:00.453Z,1011.01
2018-09-15T05:34:46.673Z,1011.00
